METAR Data
IDs: Format: Raw Decoded Include TAF

Data at: 0142 UTC 26 Apr 2019

PAGM 260056Z AUTO 22007KT 10SM OVC016 M03/M07 A3038 RMK AO2 SLP293 T10281067 FZRANO
PAGM 252356Z AUTO 24006KT 10SM OVC016 M03/M07 A3037 RMK AO2 SLP292 T10281067 11028 21050 52007 FZRANO
PAGM 252326Z AUTO 25009KT 10SM OVC016 M03/M07 A3037 RMK AO2 FZRANO
PAGM 252256Z AUTO 23009KT 10SM OVC014 M03/M07 A3037 RMK AO2 SLP290 T10331067 FZRANO
PAGM 252156Z AUTO 23010KT 10SM OVC014 M03/M07 A3036 RMK AO2 SLP288 T10331067 FZRANO
PAGM 252056Z AUTO 23008KT 10SM OVC014 M03/M07 A3035 RMK AO2 SLP285 T10331067 53007 FZRANO
PAGM 252042Z AUTO 22007KT 10SM OVC014 M03/M07 A3035 RMK AO2 FZRANO
PAGM 251956Z AUTO 22008KT 10SM OVC018 M04/M07 A3034 RMK AO2 SLP281 T10391067 FZRANO
PAGM 251924Z AUTO 23008KT 10SM OVC016 M04/M06 A3034 RMK AO2 FZRANO
PAGM 251856Z AUTO 16006KT 10SM OVC014 M05/M06 A3034 RMK AO2 SLP279 T10501061 FZRANO
PAGM 251756Z AUTO 16006KT 10SM OVC014 M05/M07 A3033 RMK AO2 SLP278 60000 T10501067 11050 21056 50007 FZRANO
PAGM 251754Z AUTO 17006KT 10SM OVC014 M05/M07 A3033 RMK AO2 FZRANO
PAGM 251656Z AUTO 16006KT 10SM OVC017 M05/M07 A3033 RMK AO2 SLP276 T10501067 FZRANO
PAGM 251556Z AUTO 16007KT 10SM OVC017 M05/M07 A3031 RMK AO2 SLP272 T10501072 FZRANO
PAGM 251456Z AUTO 15004KT 10SM OVC017 M05/M08 A3031 RMK AO2 SLP270 60000 T10501078 51003 FZRANO
PAGM 251356Z AUTO 00000KT 10SM OVC019 M05/M08 A3030 RMK AO2 UPB11E13SNB02E11 SLP269 P0000 T10501078 FZRANO
PAGM 251256Z AUTO 10004KT 10SM OVC017 M05/M08 A3030 RMK AO2 UPB38E40SNB28E38 SLP268 P0000 T10501078 FZRANO
PAGM 251156Z AUTO 00000KT 10SM OVC017 M05/M08 A3030 RMK AO2 SLP266 60000 T10501078 11050 21050 51009 FZRANO
PAGM 251056Z AUTO 00000KT 10SM OVC017 M05/M08 A3029 RMK AO2 SLP264 T10501078 FZRANO
PAGM 250956Z AUTO 00000KT 10SM OVC019 M05/M08 A3028 RMK AO2 SLP261 T10501078 FZRANO
PAGM 250856Z AUTO 10003KT 10SM OVC019 M05/M07 A3027 RMK AO2 SNE03 SLP258 P0000 60000 T10501072 410441089 51016 FZRANO
PAGM 250756Z AUTO 00000KT 10SM -SN OVC019 M05/M07 A3026 RMK AO2 SNB53 SLP253 P0000 T10501072 FZRANO
PAGM 250656Z AUTO 07006KT 10SM OVC021 M05/M07 A3025 RMK AO2 SLP249 T10501072 FZRANO
PAGM 250556Z AUTO 06009KT 10SM OVC023 M05/M07 A3023 RMK AO2 SLP242 60000 T10501072 11044 21050 52007 FZRANO
PAGM 250456Z AUTO 04006KT 10SM OVC023 M04/M07 A3022 RMK AO2 SLP241 T10441072 FZRANO
PAGM 250256Z AUTO 04007KT 10SM FEW014 OVC023 M04/M07 A3020 RMK AO2 SLP235 60000 T10441072 51008 FZRANO
PAGM 250156Z AUTO 04007KT 9SM SCT015 OVC023 M04/M08 A3020 RMK AO2 SNB40E52 SLP233 P0000 T10441078 FZRANO
PAGM 250056Z AUTO 05008KT 10SM OVC023 M04/M08 A3019 RMK AO2 SLP230 T10441078 FZRANO
PAGM 242356Z AUTO 05009KT 10SM OVC021 M04/M08 A3018 RMK AO2 SLP227 T10441078 11044 21061 53010 FZRANO
PAGM 242316Z AUTO 05009KT 10SM OVC016 M04/M08 A3017 RMK AO2 FZRANO
PAGM 242256Z AUTO 05010KT 10SM OVC014 M04/M08 A3017 RMK AO2 SLP222 T10441078 FZRANO
PAGM 242156Z AUTO 03008KT 10SM OVC014 M04/M08 A3016 RMK AO2 SLP219 T10441078 FZRANO
PAGM 242056Z AUTO 03006KT 10SM OVC014 M05/M08 A3015 RMK AO2 SLP216 T10501078 51008 FZRANO
PAGM 241956Z AUTO 03006KT 10SM OVC020 M05/M09 A3014 RMK AO2 SLP213 T10501089 FZRANO
PAGM 241856Z AUTO 01005KT 10SM OVC024 M05/M08 A3013 RMK AO2 SLP208 T10501083 FZRANO
PAGM 241756Z AUTO 02004KT 10SM OVC022 M06/M08 A3012 RMK AO2 SLP206 T10611083 11056 21089 51013 FZRANO
PAGM 241656Z AUTO 00000KT 10SM SCT017 OVC022 M07/M08 A3011 RMK AO2 SLP203 T10671083 FZRANO
PAGM 241639Z AUTO 00000KT 10SM BKN015 OVC022 M07/M08 A3011 RMK AO2 FZRANO
PAGM 241556Z AUTO 00000KT 10SM OVC013 M07/M09 A3010 RMK AO2 SLP198 T10721089 FZRANO
PAGM 241528Z AUTO 00000KT 10SM OVC015 M08/M09 A3009 RMK AO2 FZRANO
PAGM 241456Z AUTO 00000KT 10SM OVC013 M08/M09 A3008 RMK AO2 SLP194 T10781089 53006 FZRANO
PAGM 241356Z AUTO 00000KT 10SM BKN011 OVC021 M08/M09 A3008 RMK AO2 SLP192 T10831094 FZRANO